Flight Track Log - Related Links

Times and Time Zones

All times are in EST time to prevent confusion due to time zone crossing. See the EJA951 flight status page for this flight to view local times or setup timezone preferences in your user account.

Time Position Orientation Groundspeed Altitude Reporting Facility
EST Latitude Longitude Course Direction KTS MPH feet Rate Location/Type
Fri 05:47:47 PM 33.8500 -116.5167 20° North 185 213 2,000  Level Southern California TRACON
Fri 05:48:48 PM 33.8833 -116.5667 309° West 206 237 5,700 3,047 Climbing Southern California TRACON
Fri 05:49:55 PM 33.9311 -116.5100 45° Northeast 274 315 8,500 2,930 Climbing Los Angeles Center
Fri 05:50:57 PM 33.9603 -116.3833 74° East 325 374 12,000 2,516 Climbing Los Angeles Center
Fri 05:51:59 PM 33.9900 -116.2622 73° East 367 422 13,700 1,694 Climbing Los Angeles Center
Fri 05:53:00 PM 34.2752 -116.2451 20° North  Level Estimated
Fri 05:53:01 PM 34.0203 -116.1378 74° East 384 442 15,500  Level Los Angeles Center
Fri 05:54:04 PM 34.0547 -116.0122 72° East 392 451 16,900 1,488 Climbing Los Angeles Center
Fri 05:55:06 PM 34.0836 -115.8803 75° East 401 461 18,600 1,500 Climbing Los Angeles Center
Fri 05:56:08 PM 34.1286 -115.7467 68° East 426 490 20,000 1,161 Climbing Los Angeles Center
Fri 05:57:10 PM 34.2356 -115.6311 42° Northeast 428 493 21,000 484 Climbing Los Angeles Center
Fri 05:58:12 PM 34.3311 -115.5256 42° Northeast 454 522 21,000  Level Los Angeles Center
Fri 05:59:14 PM 34.4633 -115.4669 20° North 462 532 21,000  Level Los Angeles Center
Fri 06:00:16 PM 34.5853 -115.4139 20° North 463 533 21,000  Level Los Angeles Center
Fri 06:01:18 PM 34.7064 -115.3614 20° North 463 533 21,000  Level Los Angeles Center
Fri 06:02:20 PM 34.8319 -115.3431 North 458 527 21,000  Level Los Angeles Center
Fri 06:03:34 PM 34.9500 -115.3928 341° North 454 522 21,000  Level Los Angeles Center
Fri 06:04:37 PM 35.0956 -115.4492 342° North 458 527 21,000  Level Los Angeles Center
Fri 06:05:39 PM 35.2450 -115.5086 342° North 457 526 21,000 -968 Level Los Angeles Center
Fri 06:06:41 PM 35.3592 -115.5528 342° North 429 494 19,000 -1,742 Descending Los Angeles Center
Fri 06:07:43 PM 35.4458 -115.5867 342° North 361 415 17,400 -1,597 Descending Los Angeles Center
Fri 06:08:45 PM 35.5308 -115.6219 341° North 322 371 15,700 -1,784 Descending Los Angeles Center
Fri 06:08:57 PM 35.5572 -115.6339 340° North 314 361 15,200 -1,970 Descending Los Angeles Center
Fri 06:09:52 PM 35.6347 -115.6644 342° North 315 362 13,500 -1,168 Descending Los Angeles Center
Fri 06:10:50 PM 35.6981 -115.6428 16° North 314 361 13,000 -492 Descending Los Angeles Center
Fri 06:10:53 PM 35.7119 -115.6317 33° Northeast 308 354 13,000  Level Los Angeles Center
Fri 06:11:52 PM 35.7864 -115.5717 33° Northeast 327 376 13,000  Level Los Angeles Center
Fri 06:12:06 PM 35.8069 -115.5719 359° North 320 368 13,000  Level Los Angeles Center
Fri 06:12:54 PM 35.8753 -115.5672 North 321 369 13,000  Level Los Angeles Center
Fri 06:13:07 PM 35.8967 -115.5667 North 322 371 13,000  Level Los Angeles Center
Fri 06:13:56 PM 35.9611 -115.5456 15° North 323 372 13,000  Level Los Angeles Center
Fri 06:14:08 PM 35.9792 -115.5294 36° Northeast 330 380 13,000 -904 Level Los Angeles Center
Fri 06:15:09 PM 36.0119 -115.4311 68° East 314 361 11,900 -1,286 Descending Los Angeles Center
Fri 06:16:00 PM 36.0289 -115.3483 76° East 290 334 10,600 -1,667 Descending Los Angeles Center
Fri 06:16:03 PM 36.0286 -115.3381 92° East 290 334 10,400 -1,065 Descending Los Angeles Center
Fri 06:17:02 PM 36.0217 -115.2469 95° East 275 316 9,500 -885 Descending Los Angeles Center
Fri 06:17:04 PM 36.0214 -115.2447 99° East 274 315 9,500 -968 Level Los Angeles Center
Fri 06:18:04 PM 36.0161 -115.1558 94° East 264 304 8,500 -984 Descending Los Angeles Center
Fri 06:18:05 PM 36.0181 -115.1500 68° East 262 302 8,500 -1,452 Level Los Angeles Center
Fri 06:19:06 PM 36.0733 -115.1053 33° Northeast 232 267 7,000 -1,355 Descending Los Angeles Center
Fri 06:19:07 PM 36.0700 -115.1058 188° South 260 299 7,100 -3,382 Climbing Los Angeles Center
Fri 06:20:01 PM 36.1183 -115.1036 North 194 223 3,900 -2,419 Descending Los Angeles Center
Fri 06:20:09 PM 36.1114 -115.0933 130° Southeast 225 259 4,600 -1,400 Climbing Los Angeles Center
Fri 06:21:01 PM 36.1133 -115.1506 272° West 146 168 2,500 -2,032 Descending Los Angeles Center
Fri 06:21:11 PM 36.1128 -115.1489 112° Southeast 177 204 2,500  Level Los Angeles Center
Fri 06:23:00 PM 36.0801 -115.1523 270° West  Level Estimated

Login

Don't have an account? Register now (free) for customized features, flight alerts, and more!